createdAt,value
2017-07-03T00:00:39.791Z,5.87
2017-07-03T00:03:08.941Z,5.37
2017-07-03T00:05:38.098Z,6.35
2017-07-03T00:08:07.245Z,6.30
2017-07-03T00:10:36.391Z,5.55
2017-07-03T00:13:05.538Z,4.93
2017-07-03T00:15:34.691Z,5.85
2017-07-03T00:18:03.847Z,6.85
2017-07-03T00:20:33.011Z,7.47
2017-07-03T00:23:02.167Z,6.32
2017-07-03T00:25:31.386Z,7.95
2017-07-03T00:28:00.501Z,6.97
2017-07-03T00:30:29.638Z,7.37
2017-07-03T00:32:58.786Z,6.37
2017-07-03T00:35:27.962Z,6.22
2017-07-03T00:37:57.086Z,6.00
2017-07-03T00:40:26.242Z,6.20
2017-07-03T00:42:55.393Z,17.33
2017-07-03T00:45:24.556Z,12.45
2017-07-03T00:47:53.695Z,7.43
2017-07-03T00:50:22.873Z,5.57
2017-07-03T00:52:52.008Z,6.78
2017-07-03T00:55:21.150Z,6.12
2017-07-03T00:57:50.307Z,6.37
2017-07-03T01:00:19.450Z,5.45
2017-07-03T01:02:49.726Z,8.15
2017-07-03T01:05:19.961Z,5.93
2017-07-03T01:07:49.118Z,6.68
2017-07-03T01:10:18.264Z,6.47
2017-07-03T01:12:47.415Z,6.93
2017-07-03T01:15:16.557Z,5.82
2017-07-03T01:17:45.718Z,9.65
2017-07-03T01:20:14.864Z,7.78
2017-07-03T01:22:44.008Z,6.05
2017-07-03T01:25:13.187Z,6.28
2017-07-03T01:27:42.315Z,8.20
2017-07-03T01:30:11.461Z,6.05
2017-07-03T01:32:40.610Z,5.87
2017-07-03T01:35:09.763Z,7.53
2017-07-03T01:37:38.906Z,6.40
2017-07-03T01:40:08.042Z,5.90
2017-07-03T01:42:37.198Z,5.70
2017-07-03T01:45:06.338Z,7.30
2017-07-03T01:47:35.484Z,6.07
2017-07-03T01:50:04.622Z,7.80
2017-07-03T01:52:33.772Z,6.43
2017-07-03T01:55:02.906Z,8.00
2017-07-03T01:57:32.077Z,9.57
2017-07-03T02:00:01.218Z,5.97
2017-07-03T02:02:30.347Z,5.45
2017-07-03T02:04:59.498Z,6.47
2017-07-03T02:07:28.635Z,6.80
2017-07-03T02:09:57.791Z,6.35
2017-07-03T02:12:26.930Z,6.37
2017-07-03T02:14:56.079Z,6.25
2017-07-03T02:17:25.227Z,6.60
2017-07-03T02:19:54.396Z,7.43
2017-07-03T02:22:23.529Z,6.85
2017-07-03T02:24:52.680Z,6.93
2017-07-03T02:27:21.828Z,6.40
2017-07-03T02:29:50.971Z,6.78
2017-07-03T02:32:20.116Z,6.10
2017-07-03T02:34:49.261Z,5.50
2017-07-03T02:37:18.397Z,5.60
2017-07-03T02:39:47.562Z,7.07
2017-07-03T02:42:16.694Z,8.07
2017-07-03T02:44:45.848Z,6.82
2017-07-03T02:47:14.990Z,6.15
2017-07-03T02:49:44.162Z,6.43
2017-07-03T02:52:13.315Z,6.30
2017-07-03T02:54:42.457Z,6.30
2017-07-03T02:57:11.608Z,9.45
2017-07-03T02:59:40.771Z,7.37
2017-07-03T03:02:09.907Z,5.68
2017-07-03T03:04:39.063Z,5.62
2017-07-03T03:07:08.220Z,5.28
2017-07-03T03:09:37.374Z,10.70
2017-07-03T03:12:06.519Z,6.15
2017-07-03T03:14:35.706Z,5.78
2017-07-03T03:17:04.822Z,5.72
2017-07-03T03:19:33.977Z,6.40
2017-07-03T03:22:03.159Z,6.30
2017-07-03T03:24:32.304Z,5.65
2017-07-03T03:27:01.447Z,6.03
2017-07-03T03:29:30.607Z,5.82
2017-07-03T03:31:59.764Z,6.05
2017-07-03T03:34:28.915Z,7.35
2017-07-03T03:36:58.068Z,5.90
2017-07-03T03:39:27.218Z,5.62
2017-07-03T03:41:56.346Z,6.70
2017-07-03T03:44:25.502Z,6.20
2017-07-03T03:46:54.639Z,7.43
2017-07-03T03:49:23.781Z,6.30
2017-07-03T03:51:52.956Z,5.25
2017-07-03T03:54:22.112Z,5.50
2017-07-03T03:56:51.258Z,8.55
2017-07-03T03:59:20.420Z,6.87
2017-07-03T04:01:49.566Z,7.03
2017-07-03T04:04:18.708Z,6.03
2017-07-03T04:06:47.869Z,5.53
2017-07-03T04:09:17.023Z,7.57
2017-07-03T04:11:46.172Z,5.22
2017-07-03T04:14:15.311Z,6.03
2017-07-03T04:16:44.451Z,5.20
2017-07-03T04:19:13.595Z,6.10
2017-07-03T04:21:42.762Z,8.75
2017-07-03T04:24:11.913Z,6.28
2017-07-03T04:26:41.061Z,5.60
2017-07-03T04:29:10.203Z,4.97
2017-07-03T04:31:39.368Z,6.25
2017-07-03T04:34:08.503Z,7.75
2017-07-03T04:36:37.666Z,6.97
2017-07-03T04:39:06.823Z,5.93
2017-07-03T04:41:35.959Z,7.85
2017-07-03T04:44:05.108Z,10.43
2017-07-03T04:46:34.250Z,4.68
2017-07-03T04:49:03.407Z,6.50
2017-07-03T04:51:32.566Z,5.62
2017-07-03T04:54:01.702Z,8.52
2017-07-03T04:56:30.848Z,4.40
2017-07-03T04:59:00.005Z,4.10
2017-07-03T05:01:29.142Z,4.72
2017-07-03T05:03:58.306Z,4.68
2017-07-03T05:06:27.494Z,6.95
2017-07-03T05:08:56.664Z,5.90
2017-07-03T05:11:25.827Z,10.13
2017-07-03T05:13:54.979Z,4.22
2017-07-03T05:16:24.132Z,6.18
2017-07-03T05:18:53.278Z,6.60
2017-07-03T05:21:22.442Z,4.72
2017-07-03T05:23:51.574Z,4.30
2017-07-03T05:26:20.718Z,12.50
2017-07-03T05:28:49.862Z,11.10
2017-07-03T05:31:19.015Z,6.00
2017-07-03T05:33:48.162Z,4.40
2017-07-03T05:36:17.334Z,6.32
2017-07-03T05:38:46.466Z,13.10
2017-07-03T05:41:15.627Z,8.82
2017-07-03T05:43:50.538Z,8.95
2017-07-03T05:46:19.696Z,7.28
2017-07-03T05:48:48.862Z,4.90
2017-07-03T05:51:18.024Z,6.82
2017-07-03T05:53:47.172Z,5.70
2017-07-03T05:56:16.369Z,9.20
2017-07-03T05:58:45.524Z,4.87
2017-07-03T06:01:14.683Z,7.07
2017-07-03T06:03:43.831Z,8.13
2017-07-03T06:06:13.015Z,4.78
2017-07-03T06:08:42.168Z,7.47
2017-07-03T06:11:11.325Z,8.35
2017-07-03T06:13:40.500Z,11.85
2017-07-03T06:16:09.658Z,7.80
2017-07-03T06:18:38.807Z,9.02
2017-07-03T06:21:07.995Z,10.55
2017-07-03T06:23:37.154Z,9.93
2017-07-03T06:26:06.344Z,5.65
2017-07-03T06:28:35.494Z,7.57
2017-07-03T06:31:04.640Z,4.65
2017-07-03T06:33:33.806Z,5.97
2017-07-03T06:36:02.953Z,8.10
2017-07-03T06:38:32.116Z,18.10
2017-07-03T06:41:01.275Z,10.40
2017-07-03T06:43:30.425Z,6.03
2017-07-03T06:45:59.574Z,7.72
2017-07-03T06:48:28.731Z,10.25
2017-07-03T06:50:57.892Z,6.97
2017-07-03T06:53:27.043Z,11.30
2017-07-03T06:55:56.212Z,8.32
2017-07-03T06:58:25.357Z,7.95
2017-07-03T07:00:54.514Z,5.65
2017-07-03T07:03:23.666Z,11.90
2017-07-03T07:05:52.908Z,4.68
2017-07-03T07:08:22.067Z,4.40
2017-07-03T07:10:51.227Z,9.07
2017-07-03T07:13:20.397Z,6.82
2017-07-03T07:15:49.551Z,9.35
2017-07-03T07:18:18.707Z,7.72
2017-07-03T07:20:47.881Z,9.82
2017-07-03T07:23:17.032Z,8.75
2017-07-03T07:25:46.188Z,8.82
2017-07-03T07:28:15.333Z,6.68
2017-07-03T07:30:44.496Z,6.78
2017-07-03T07:33:13.653Z,9.10
2017-07-03T07:35:42.836Z,15.65
2017-07-03T07:38:11.993Z,6.60
2017-07-03T07:40:41.163Z,9.52
2017-07-03T07:43:10.343Z,6.32
2017-07-03T07:45:39.487Z,7.40
2017-07-03T07:48:08.660Z,8.07
2017-07-03T07:50:37.825Z,6.80
2017-07-03T07:53:06.948Z,7.00
2017-07-03T07:55:36.100Z,7.63
2017-07-03T07:58:05.249Z,10.50
2017-07-03T08:00:34.400Z,6.50
2017-07-03T08:03:03.570Z,8.00
2017-07-03T08:05:32.704Z,6.27
2017-07-03T08:08:01.870Z,5.60
2017-07-03T08:10:31.024Z,6.67
2017-07-03T08:13:00.279Z,5.80
2017-07-03T08:15:29.403Z,7.53
2017-07-03T08:17:58.551Z,13.10
2017-07-03T08:20:27.771Z,9.30
2017-07-03T08:22:56.900Z,12.70
2017-07-03T08:25:26.063Z,9.00
2017-07-03T08:27:55.202Z,9.83
2017-07-03T08:30:24.346Z,11.43
2017-07-03T08:32:53.508Z,6.53
2017-07-03T08:35:22.674Z,7.60
2017-07-03T08:37:51.817Z,7.33
2017-07-03T08:40:20.979Z,6.97
2017-07-03T08:42:50.133Z,9.07
2017-07-03T08:45:19.321Z,7.53
2017-07-03T08:47:48.469Z,6.87
2017-07-03T08:50:17.623Z,6.50
2017-07-03T08:52:46.775Z,18.30
2017-07-03T08:55:15.943Z,8.00
2017-07-03T08:57:45.110Z,6.00
2017-07-03T09:00:14.281Z,10.77
2017-07-03T09:02:43.435Z,7.10
2017-07-03T09:05:12.586Z,6.00
2017-07-03T09:07:41.733Z,5.80
2017-07-03T09:10:11.196Z,9.13
2017-07-03T09:12:40.329Z,5.03
2017-07-03T09:15:09.487Z,7.23
2017-07-03T09:17:38.657Z,4.83
2017-07-03T09:20:07.795Z,5.90
2017-07-03T09:22:36.947Z,5.53
2017-07-03T09:25:06.103Z,4.43
2017-07-03T09:27:35.246Z,8.30
2017-07-03T09:30:04.411Z,7.87
2017-07-03T09:32:33.572Z,4.33
2017-07-03T09:35:02.729Z,4.00
2017-07-03T09:37:31.886Z,4.40
2017-07-03T09:40:01.060Z,3.80
2017-07-03T09:42:30.199Z,4.63
2017-07-03T09:44:59.350Z,4.63
2017-07-03T09:47:28.523Z,6.60
2017-07-03T09:49:57.670Z,4.30
2017-07-03T09:52:26.828Z,5.53
2017-07-03T09:54:55.976Z,7.00
2017-07-03T09:57:25.111Z,4.57
2017-07-03T09:59:54.272Z,6.43
2017-07-03T10:02:23.418Z,3.47
2017-07-03T10:04:52.594Z,3.60
2017-07-03T10:07:21.737Z,5.63
2017-07-03T10:09:50.888Z,4.27
2017-07-03T10:12:20.044Z,4.13
2017-07-03T10:14:49.309Z,3.80
2017-07-03T10:17:18.443Z,3.30
2017-07-03T10:19:47.590Z,3.30
2017-07-03T10:22:16.747Z,5.57
2017-07-03T10:24:45.905Z,4.03
2017-07-03T10:27:15.040Z,3.77
2017-07-03T10:29:44.192Z,3.70
2017-07-03T10:32:13.338Z,3.63
2017-07-03T10:34:42.485Z,3.47
2017-07-03T10:37:11.653Z,3.60
2017-07-03T10:39:40.791Z,3.30
2017-07-03T10:42:09.954Z,3.80
2017-07-03T10:44:39.106Z,4.10
2017-07-03T10:47:08.252Z,3.27
2017-07-03T10:49:37.439Z,5.13
2017-07-03T10:52:06.609Z,3.50
2017-07-03T10:54:35.757Z,3.73
2017-07-03T10:57:04.907Z,3.13
2017-07-03T10:59:34.067Z,3.70
2017-07-03T11:02:03.211Z,6.00
2017-07-03T11:04:32.361Z,3.60
2017-07-03T11:07:01.535Z,3.40
2017-07-03T11:09:30.667Z,3.30
2017-07-03T11:11:59.820Z,2.80
2017-07-03T11:14:28.972Z,3.50
2017-07-03T11:16:58.124Z,4.33
2017-07-03T11:19:27.264Z,2.73
2017-07-03T11:21:56.426Z,3.00
2017-07-03T11:24:25.588Z,4.00
2017-07-03T11:26:54.722Z,2.30
2017-07-03T11:29:23.883Z,2.97
2017-07-03T11:31:53.043Z,2.70
2017-07-03T11:34:22.203Z,3.13
2017-07-03T11:36:51.358Z,6.50
2017-07-03T11:39:20.503Z,2.67
2017-07-03T11:41:49.656Z,3.27
2017-07-03T11:44:18.822Z,3.03
2017-07-03T11:46:47.974Z,2.83
2017-07-03T11:49:17.118Z,3.20
2017-07-03T11:51:46.270Z,2.53
2017-07-03T11:54:15.446Z,2.43
2017-07-03T11:56:45.230Z,2.40
2017-07-03T11:59:14.395Z,2.57
2017-07-03T12:01:43.523Z,2.40
2017-07-03T12:04:12.666Z,2.80
2017-07-03T12:06:41.823Z,3.10
2017-07-03T12:09:10.959Z,2.90
2017-07-03T12:11:40.092Z,3.90
2017-07-03T12:14:09.246Z,2.07
2017-07-03T12:16:38.394Z,3.03
2017-07-03T12:19:07.555Z,2.80
2017-07-03T12:21:36.714Z,2.20
2017-07-03T12:24:05.855Z,6.93
2017-07-03T12:26:34.992Z,2.23
2017-07-03T12:29:04.152Z,2.80
2017-07-03T12:31:33.292Z,2.57
2017-07-03T12:34:02.427Z,2.20
2017-07-03T12:36:31.607Z,2.20
2017-07-03T12:39:00.767Z,3.07
2017-07-03T12:41:29.917Z,2.90
2017-07-03T12:43:59.747Z,1.87
2017-07-03T12:46:28.883Z,2.03
2017-07-03T12:48:58.041Z,2.60
2017-07-03T12:51:27.191Z,2.83
2017-07-03T12:53:56.384Z,2.07
2017-07-03T12:56:25.548Z,2.47
2017-07-03T12:58:54.680Z,2.03
2017-07-03T13:01:23.829Z,1.90
2017-07-03T13:03:52.980Z,2.13
2017-07-03T13:06:22.120Z,2.57
2017-07-03T13:08:51.283Z,3.07
2017-07-03T13:11:20.429Z,1.97
2017-07-03T13:13:49.590Z,2.17
2017-07-03T13:16:18.721Z,2.30
2017-07-03T13:18:47.875Z,3.50
2017-07-03T13:21:17.037Z,2.13
2017-07-03T13:23:46.175Z,2.30
2017-07-03T13:26:15.322Z,3.83
2017-07-03T13:28:44.486Z,2.40
2017-07-03T13:31:13.634Z,2.50
2017-07-03T13:33:42.794Z,2.60
2017-07-03T13:36:12.032Z,2.67
2017-07-03T13:38:41.162Z,6.77
2017-07-03T13:41:10.313Z,2.37
2017-07-03T13:43:39.468Z,2.27
2017-07-03T13:46:08.616Z,2.60
2017-07-03T13:48:37.759Z,3.23
2017-07-03T13:51:06.917Z,3.90
2017-07-03T13:53:36.069Z,2.23
2017-07-03T13:56:05.203Z,2.90
2017-07-03T13:58:34.357Z,5.33
2017-07-03T14:01:03.492Z,2.80
2017-07-03T14:03:32.656Z,2.30
2017-07-03T14:06:01.815Z,6.70
2017-07-03T14:08:30.943Z,2.90
2017-07-03T14:11:00.090Z,2.63
2017-07-03T14:13:29.258Z,2.60
2017-07-03T14:15:58.399Z,3.43
2017-07-03T14:18:27.539Z,2.57
2017-07-03T14:20:56.736Z,4.87
2017-07-03T14:23:25.871Z,3.10
2017-07-03T14:25:55.023Z,3.73
2017-07-03T14:28:24.175Z,3.23
2017-07-03T14:30:53.330Z,3.17
2017-07-03T14:33:22.491Z,3.40
2017-07-03T14:35:51.637Z,3.17
2017-07-03T14:38:20.777Z,3.00
2017-07-03T14:40:49.944Z,3.00
2017-07-03T14:43:19.098Z,3.10
2017-07-03T14:45:48.243Z,2.77
2017-07-03T14:48:17.403Z,2.83
2017-07-03T14:50:46.573Z,3.27
2017-07-03T14:53:15.715Z,3.67
2017-07-03T14:55:44.859Z,2.43
2017-07-03T14:58:14.007Z,2.80
2017-07-03T15:00:43.151Z,3.20
2017-07-03T15:03:12.314Z,3.10
2017-07-03T15:05:41.459Z,12.60
2017-07-03T15:08:10.623Z,2.97
2017-07-03T15:10:39.773Z,3.00
2017-07-03T15:13:08.928Z,2.80
2017-07-03T15:15:38.070Z,3.50
2017-07-03T15:18:07.219Z,2.83
2017-07-03T15:20:36.383Z,2.70
2017-07-03T15:23:05.561Z,3.20
2017-07-03T15:25:34.703Z,3.37
2017-07-03T15:28:03.859Z,2.63
2017-07-03T15:30:32.998Z,4.53
2017-07-03T15:33:02.136Z,3.30
2017-07-03T15:35:31.318Z,4.30
2017-07-03T15:38:00.458Z,2.70
2017-07-03T15:40:29.620Z,2.87
2017-07-03T15:42:58.788Z,2.60
2017-07-03T15:45:27.940Z,4.47
2017-07-03T15:47:57.081Z,5.80
2017-07-03T15:50:26.255Z,2.80
2017-07-03T15:52:55.398Z,5.20
2017-07-03T15:55:24.543Z,3.70
2017-07-03T15:57:53.716Z,2.37
2017-07-03T16:00:22.867Z,4.13
2017-07-03T16:02:52.003Z,4.50
2017-07-03T16:05:21.154Z,3.50
2017-07-03T16:07:50.306Z,2.90
2017-07-03T16:10:19.462Z,3.00
2017-07-03T16:12:48.628Z,2.63
2017-07-03T16:15:17.763Z,5.47
2017-07-03T16:17:46.921Z,4.07
2017-07-03T16:20:16.076Z,3.00
2017-07-03T16:22:45.344Z,3.70
2017-07-03T16:25:14.501Z,2.57
2017-07-03T16:27:43.653Z,2.60
2017-07-03T16:30:12.799Z,2.30
2017-07-03T16:32:41.951Z,2.63
2017-07-03T16:35:11.089Z,2.00
2017-07-03T16:37:40.272Z,2.57
2017-07-03T16:40:09.416Z,2.20
2017-07-03T16:42:38.570Z,3.53
2017-07-03T16:45:07.706Z,2.53
2017-07-03T16:47:36.870Z,2.47
2017-07-03T16:50:06.028Z,2.30
2017-07-03T16:52:35.190Z,2.43
2017-07-03T16:55:04.347Z,2.10
2017-07-03T16:57:33.479Z,5.03
2017-07-03T17:00:02.643Z,1.97
2017-07-03T17:02:31.801Z,2.00
2017-07-03T17:05:00.951Z,2.27
2017-07-03T17:07:30.103Z,2.70
2017-07-03T17:09:59.266Z,2.40
2017-07-03T17:12:28.446Z,2.50
2017-07-03T17:14:57.569Z,2.93
2017-07-03T17:17:26.750Z,3.20
2017-07-03T17:19:55.900Z,2.43
2017-07-03T17:22:25.061Z,3.63
2017-07-03T17:24:54.220Z,1.90
2017-07-03T17:27:23.371Z,2.37
2017-07-03T17:29:52.511Z,2.80
2017-07-03T17:32:21.663Z,2.33
2017-07-03T17:34:50.823Z,4.50
2017-07-03T17:37:20.000Z,4.40
2017-07-03T17:39:49.144Z,2.50
2017-07-03T17:42:18.311Z,5.10
2017-07-03T17:44:48.407Z,2.80
2017-07-03T17:47:17.567Z,2.30
2017-07-03T17:49:46.724Z,2.20
2017-07-03T17:52:15.903Z,2.23
2017-07-03T17:54:45.091Z,2.40
2017-07-03T17:57:14.261Z,2.90
2017-07-03T17:59:43.393Z,2.53
2017-07-03T18:02:12.592Z,3.23
2017-07-03T18:04:41.850Z,1.90
2017-07-03T18:07:11.067Z,2.10
2017-07-03T18:09:40.274Z,2.33
2017-07-03T18:12:09.415Z,2.20
2017-07-03T18:14:38.592Z,2.43
2017-07-03T18:17:07.727Z,3.20
2017-07-03T18:19:36.889Z,2.50
2017-07-03T18:22:06.038Z,2.87
2017-07-03T18:24:35.201Z,1.97
2017-07-03T18:27:04.338Z,2.80
2017-07-03T18:29:33.515Z,2.20
2017-07-03T18:32:02.662Z,1.70
2017-07-03T18:34:31.802Z,2.30
2017-07-03T18:37:00.979Z,10.10
2017-07-03T18:39:30.137Z,2.10
2017-07-03T18:41:59.300Z,2.20
2017-07-03T18:44:28.463Z,2.27
2017-07-03T18:46:57.624Z,2.00
2017-07-03T18:49:26.775Z,1.87
2017-07-03T18:51:55.935Z,1.53
2017-07-03T18:54:25.102Z,3.27
2017-07-03T18:56:54.260Z,2.80
2017-07-03T18:59:23.405Z,1.60
2017-07-03T19:01:52.548Z,1.37
2017-07-03T19:04:21.708Z,2.23
2017-07-03T19:06:50.917Z,2.17
2017-07-03T19:09:20.064Z,1.87
2017-07-03T19:11:49.321Z,2.27
2017-07-03T19:14:18.478Z,7.10
2017-07-03T19:16:47.622Z,3.53
2017-07-03T19:19:16.783Z,1.80
2017-07-03T19:21:45.965Z,2.37
2017-07-03T19:24:15.129Z,2.07
2017-07-03T19:26:44.289Z,1.60
2017-07-03T19:29:13.457Z,2.40
2017-07-03T19:31:42.608Z,3.20
2017-07-03T19:34:11.762Z,2.10
2017-07-03T19:36:40.937Z,2.07
2017-07-03T19:39:10.088Z,4.17
2017-07-03T19:41:39.232Z,3.43
2017-07-03T19:44:08.395Z,1.90
2017-07-03T19:46:37.561Z,1.63
2017-07-03T19:49:06.723Z,2.07
2017-07-03T19:51:35.873Z,2.20
2017-07-03T19:54:05.077Z,2.23
2017-07-03T19:56:34.190Z,4.27
2017-07-03T19:59:03.364Z,4.60
2017-07-03T20:01:33.182Z,2.50
2017-07-03T20:04:02.338Z,2.80
2017-07-03T20:06:31.532Z,2.33
2017-07-03T20:09:00.687Z,8.53
2017-07-03T20:11:29.820Z,2.90
2017-07-03T20:13:58.986Z,2.57
2017-07-03T20:16:28.139Z,2.63
2017-07-03T20:18:57.319Z,3.40
2017-07-03T20:21:26.489Z,3.00
2017-07-03T20:23:55.668Z,3.30
2017-07-03T20:26:24.821Z,2.77
2017-07-03T20:28:53.975Z,4.30
2017-07-03T20:31:23.126Z,2.83
2017-07-03T20:33:52.307Z,2.47
2017-07-03T20:36:21.453Z,2.87
2017-07-03T20:38:50.606Z,2.33
2017-07-03T20:41:19.775Z,2.70
2017-07-03T20:43:48.938Z,2.57
2017-07-03T20:46:18.100Z,2.33
2017-07-03T20:48:47.273Z,2.75
2017-07-03T20:51:16.470Z,2.45
2017-07-03T20:53:45.634Z,2.33
2017-07-03T20:56:14.799Z,2.40
2017-07-03T20:58:43.943Z,3.08
2017-07-03T21:01:13.103Z,2.45
2017-07-03T21:03:42.281Z,2.70
2017-07-03T21:06:11.448Z,2.70
2017-07-03T21:08:40.603Z,2.25
2017-07-03T21:11:09.768Z,3.58
2017-07-03T21:13:38.948Z,3.85
2017-07-03T21:16:08.085Z,3.15
2017-07-03T21:18:37.244Z,3.15
2017-07-03T21:21:06.402Z,2.42
2017-07-03T21:23:35.580Z,2.30
2017-07-03T21:26:04.733Z,3.00
2017-07-03T21:28:33.910Z,8.25
2017-07-03T21:31:03.044Z,4.37
2017-07-03T21:33:32.196Z,6.00
2017-07-03T21:36:01.371Z,5.85
2017-07-03T21:38:30.534Z,5.95
2017-07-03T21:40:59.679Z,7.60
2017-07-03T21:43:28.835Z,6.80
2017-07-03T21:45:57.992Z,7.95
2017-07-03T21:48:27.155Z,6.68
2017-07-03T21:50:56.341Z,6.75
2017-07-03T21:53:25.497Z,5.65
2017-07-03T21:55:54.671Z,4.53
2017-07-03T21:58:23.950Z,4.80
2017-07-03T22:00:53.092Z,4.72
2017-07-03T22:03:22.280Z,3.22
2017-07-03T22:05:51.443Z,4.30
2017-07-03T22:08:20.604Z,4.00
2017-07-03T22:10:49.751Z,2.80
2017-07-03T22:13:18.909Z,2.53
2017-07-03T22:15:48.065Z,4.15
2017-07-03T22:18:17.219Z,3.20
2017-07-03T22:20:46.379Z,2.80
2017-07-03T22:23:15.546Z,2.67
2017-07-03T22:25:44.703Z,2.78
2017-07-03T22:28:13.843Z,2.35
2017-07-03T22:30:43.006Z,2.50
2017-07-03T22:33:12.164Z,3.95
2017-07-03T22:35:41.321Z,2.40
2017-07-03T22:38:10.482Z,2.70
2017-07-03T22:40:39.637Z,2.10
2017-07-03T22:43:08.814Z,2.10
2017-07-03T22:45:37.961Z,2.55
2017-07-03T22:48:07.116Z,3.17
2017-07-03T22:50:36.279Z,3.40
2017-07-03T22:53:05.435Z,6.53
2017-07-03T22:55:34.584Z,2.72
2017-07-03T22:58:03.758Z,2.40
2017-07-03T23:00:32.907Z,2.40
2017-07-03T23:03:02.072Z,2.28
2017-07-03T23:05:31.237Z,4.47
2017-07-03T23:08:00.381Z,4.40
2017-07-03T23:10:29.539Z,2.80
2017-07-03T23:12:58.720Z,3.62
2017-07-03T23:15:27.872Z,2.70
2017-07-03T23:17:57.015Z,2.75
2017-07-03T23:20:26.178Z,6.97
2017-07-03T23:22:55.340Z,2.80
2017-07-03T23:25:24.509Z,3.75
2017-07-03T23:27:53.646Z,4.40
2017-07-03T23:30:22.803Z,3.72
2017-07-03T23:32:51.971Z,2.80
2017-07-03T23:35:21.144Z,3.00
2017-07-03T23:37:50.311Z,9.15
2017-07-03T23:40:19.459Z,2.60
2017-07-03T23:42:48.627Z,3.17
2017-07-03T23:45:17.774Z,2.85
2017-07-03T23:47:46.942Z,2.60
2017-07-03T23:50:16.095Z,2.97
2017-07-03T23:52:45.236Z,3.05
2017-07-03T23:55:14.402Z,3.97
2017-07-03T23:57:43.555Z,2.50
